sensor_id;sensor_type;location;lat;lon;timestamp;P1;durP1;ratioP1;P2;durP2;ratioP2
58446;SDS011;44240;51.840;7.258;2024-01-06T00:02:08;13.38;;;7.05;;
58446;SDS011;44240;51.840;7.258;2024-01-06T00:04:35;14.05;;;7.05;;
58446;SDS011;44240;51.840;7.258;2024-01-06T00:07:02;16.55;;;8.18;;
58446;SDS011;44240;51.840;7.258;2024-01-06T00:09:29;14.70;;;7.53;;
58446;SDS011;44240;51.840;7.258;2024-01-06T00:11:55;17.38;;;8.18;;
58446;SDS011;44240;51.840;7.258;2024-01-06T00:14:22;17.15;;;9.25;;
58446;SDS011;44240;51.840;7.258;2024-01-06T00:16:49;17.00;;;8.68;;
58446;SDS011;44240;51.840;7.258;2024-01-06T00:19:16;19.17;;;9.63;;
58446;SDS011;44240;51.840;7.258;2024-01-06T00:21:44;17.45;;;9.98;;
58446;SDS011;44240;51.840;7.258;2024-01-06T00:24:11;17.73;;;8.95;;
58446;SDS011;44240;51.840;7.258;2024-01-06T00:26:37;19.52;;;9.32;;
58446;SDS011;44240;51.840;7.258;2024-01-06T00:29:04;19.77;;;10.27;;
58446;SDS011;44240;51.840;7.258;2024-01-06T00:31:31;19.75;;;9.93;;
58446;SDS011;44240;51.840;7.258;2024-01-06T00:33:58;17.70;;;10.38;;
58446;SDS011;44240;51.840;7.258;2024-01-06T00:36:25;18.55;;;9.98;;
58446;SDS011;44240;51.840;7.258;2024-01-06T00:38:51;17.85;;;10.65;;
58446;SDS011;44240;51.840;7.258;2024-01-06T00:41:18;17.30;;;9.63;;
58446;SDS011;44240;51.840;7.258;2024-01-06T00:43:45;17.67;;;9.10;;
58446;SDS011;44240;51.840;7.258;2024-01-06T00:46:12;17.17;;;8.13;;
58446;SDS011;44240;51.840;7.258;2024-01-06T00:48:39;17.02;;;8.70;;
58446;SDS011;44240;51.840;7.258;2024-01-06T00:51:06;13.48;;;7.93;;
58446;SDS011;44240;51.840;7.258;2024-01-06T00:53:32;11.30;;;6.35;;
58446;SDS011;44240;51.840;7.258;2024-01-06T00:55:59;13.30;;;6.95;;
58446;SDS011;44240;51.840;7.258;2024-01-06T00:58:26;12.30;;;6.90;;
58446;SDS011;44240;51.840;7.258;2024-01-06T01:00:53;12.63;;;7.10;;
58446;SDS011;44240;51.840;7.258;2024-01-06T01:03:20;10.85;;;6.68;;
58446;SDS011;44240;51.840;7.258;2024-01-06T01:05:47;12.98;;;6.03;;
58446;SDS011;44240;51.840;7.258;2024-01-06T01:08:13;13.07;;;6.90;;
58446;SDS011;44240;51.840;7.258;2024-01-06T01:10:40;10.15;;;5.70;;
58446;SDS011;44240;51.840;7.258;2024-01-06T01:13:07;12.32;;;6.20;;
58446;SDS011;44240;51.840;7.258;2024-01-06T01:15:34;11.45;;;6.35;;
58446;SDS011;44240;51.840;7.258;2024-01-06T01:18:01;13.27;;;7.60;;
58446;SDS011;44240;51.840;7.258;2024-01-06T01:20:28;13.52;;;7.35;;
58446;SDS011;44240;51.840;7.258;2024-01-06T01:22:54;13.40;;;7.22;;
58446;SDS011;44240;51.840;7.258;2024-01-06T01:25:21;13.43;;;7.05;;
58446;SDS011;44240;51.840;7.258;2024-01-06T01:27:48;12.73;;;6.80;;
58446;SDS011;44240;51.840;7.258;2024-01-06T01:30:15;13.93;;;6.70;;
58446;SDS011;44240;51.840;7.258;2024-01-06T01:32:42;15.65;;;8.27;;
58446;SDS011;44240;51.840;7.258;2024-01-06T01:35:09;12.32;;;6.90;;
58446;SDS011;44240;51.840;7.258;2024-01-06T01:37:36;14.35;;;6.72;;
58446;SDS011;44240;51.840;7.258;2024-01-06T01:40:03;14.77;;;7.13;;
58446;SDS011;44240;51.840;7.258;2024-01-06T01:42:30;18.52;;;7.28;;
58446;SDS011;44240;51.840;7.258;2024-01-06T01:44:57;13.65;;;7.45;;
58446;SDS011;44240;51.840;7.258;2024-01-06T01:47:24;13.80;;;6.97;;
58446;SDS011;44240;51.840;7.258;2024-01-06T01:49:51;14.90;;;7.88;;
58446;SDS011;44240;51.840;7.258;2024-01-06T01:52:21;15.68;;;7.95;;
58446;SDS011;44240;51.840;7.258;2024-01-06T01:54:48;15.93;;;8.35;;
58446;SDS011;44240;51.840;7.258;2024-01-06T01:57:15;15.32;;;8.30;;
58446;SDS011;44240;51.840;7.258;2024-01-06T01:59:43;17.63;;;8.60;;
58446;SDS011;44240;51.840;7.258;2024-01-06T02:02:10;17.48;;;8.60;;
58446;SDS011;44240;51.840;7.258;2024-01-06T02:04:38;17.65;;;8.63;;
58446;SDS011;44240;51.840;7.258;2024-01-06T02:07:05;16.83;;;8.38;;
58446;SDS011;44240;51.840;7.258;2024-01-06T02:09:32;16.52;;;8.38;;
58446;SDS011;44240;51.840;7.258;2024-01-06T02:11:59;16.95;;;8.35;;
58446;SDS011;44240;51.840;7.258;2024-01-06T02:14:25;17.23;;;7.95;;
58446;SDS011;44240;51.840;7.258;2024-01-06T02:16:52;16.67;;;7.95;;
58446;SDS011;44240;51.840;7.258;2024-01-06T02:19:19;16.73;;;9.38;;
58446;SDS011;44240;51.840;7.258;2024-01-06T02:21:52;13.27;;;7.18;;
58446;SDS011;44240;51.840;7.258;2024-01-06T02:24:20;16.60;;;8.45;;
58446;SDS011;44240;51.840;7.258;2024-01-06T02:26:47;16.55;;;7.28;;
58446;SDS011;44240;51.840;7.258;2024-01-06T02:29:14;18.25;;;8.18;;
58446;SDS011;44240;51.840;7.258;2024-01-06T02:31:41;20.77;;;10.07;;
58446;SDS011;44240;51.840;7.258;2024-01-06T02:34:08;17.52;;;7.93;;
58446;SDS011;44240;51.840;7.258;2024-01-06T02:36:34;19.23;;;9.45;;
58446;SDS011;44240;51.840;7.258;2024-01-06T02:39:01;21.40;;;9.27;;
58446;SDS011;44240;51.840;7.258;2024-01-06T02:41:28;21.67;;;9.25;;
58446;SDS011;44240;51.840;7.258;2024-01-06T02:43:55;21.48;;;9.35;;
58446;SDS011;44240;51.840;7.258;2024-01-06T02:46:22;18.23;;;9.00;;
58446;SDS011;44240;51.840;7.258;2024-01-06T02:48:49;22.48;;;9.90;;
58446;SDS011;44240;51.840;7.258;2024-01-06T02:51:16;21.38;;;10.52;;
58446;SDS011;44240;51.840;7.258;2024-01-06T02:53:43;20.08;;;10.13;;
58446;SDS011;44240;51.840;7.258;2024-01-06T02:56:10;24.40;;;10.20;;
58446;SDS011;44240;51.840;7.258;2024-01-06T02:58:38;20.67;;;9.95;;
58446;SDS011;44240;51.840;7.258;2024-01-06T03:01:05;19.63;;;10.68;;
58446;SDS011;44240;51.840;7.258;2024-01-06T03:03:32;19.30;;;8.75;;
58446;SDS011;44240;51.840;7.258;2024-01-06T03:05:59;16.27;;;6.93;;
58446;SDS011;44240;51.840;7.258;2024-01-06T03:08:26;17.52;;;8.73;;
58446;SDS011;44240;51.840;7.258;2024-01-06T03:10:53;17.48;;;7.45;;
58446;SDS011;44240;51.840;7.258;2024-01-06T03:13:20;16.13;;;6.45;;
58446;SDS011;44240;51.840;7.258;2024-01-06T03:15:47;13.20;;;6.57;;
58446;SDS011;44240;51.840;7.258;2024-01-06T03:18:13;15.63;;;7.07;;
58446;SDS011;44240;51.840;7.258;2024-01-06T03:20:41;12.95;;;6.47;;
58446;SDS011;44240;51.840;7.258;2024-01-06T03:23:07;12.45;;;5.90;;
58446;SDS011;44240;51.840;7.258;2024-01-06T03:25:34;15.00;;;6.57;;
58446;SDS011;44240;51.840;7.258;2024-01-06T03:28:01;12.27;;;6.95;;
58446;SDS011;44240;51.840;7.258;2024-01-06T03:30:28;13.93;;;6.72;;
58446;SDS011;44240;51.840;7.258;2024-01-06T03:32:55;14.40;;;7.30;;
58446;SDS011;44240;51.840;7.258;2024-01-06T03:35:22;15.98;;;7.05;;
58446;SDS011;44240;51.840;7.258;2024-01-06T03:37:49;16.05;;;7.05;;
58446;SDS011;44240;51.840;7.258;2024-01-06T03:40:16;13.98;;;7.13;;
58446;SDS011;44240;51.840;7.258;2024-01-06T03:42:43;15.38;;;6.70;;
58446;SDS011;44240;51.840;7.258;2024-01-06T03:45:10;12.18;;;5.78;;
58446;SDS011;44240;51.840;7.258;2024-01-06T03:47:36;13.18;;;7.10;;
58446;SDS011;44240;51.840;7.258;2024-01-06T03:50:03;13.00;;;6.22;;
58446;SDS011;44240;51.840;7.258;2024-01-06T03:52:30;12.77;;;6.78;;
58446;SDS011;44240;51.840;7.258;2024-01-06T03:54:57;12.48;;;6.13;;
58446;SDS011;44240;51.840;7.258;2024-01-06T03:57:24;13.10;;;6.05;;
58446;SDS011;44240;51.840;7.258;2024-01-06T03:59:51;13.45;;;5.82;;
58446;SDS011;44240;51.840;7.258;2024-01-06T04:02:18;12.32;;;5.30;;
58446;SDS011;44240;51.840;7.258;2024-01-06T04:04:44;11.38;;;5.07;;
58446;SDS011;44240;51.840;7.258;2024-01-06T04:07:11;13.60;;;5.45;;
58446;SDS011;44240;51.840;7.258;2024-01-06T04:09:41;12.82;;;5.30;;
58446;SDS011;44240;51.840;7.258;2024-01-06T04:12:08;11.75;;;5.03;;
58446;SDS011;44240;51.840;7.258;2024-01-06T04:14:35;12.95;;;5.65;;
58446;SDS011;44240;51.840;7.258;2024-01-06T04:17:02;11.82;;;5.40;;
58446;SDS011;44240;51.840;7.258;2024-01-06T04:19:29;11.05;;;5.22;;
58446;SDS011;44240;51.840;7.258;2024-01-06T04:21:56;11.07;;;5.10;;
58446;SDS011;44240;51.840;7.258;2024-01-06T04:24:23;13.80;;;5.60;;
58446;SDS011;44240;51.840;7.258;2024-01-06T04:26:50;12.55;;;6.07;;
58446;SDS011;44240;51.840;7.258;2024-01-06T04:29:17;14.90;;;5.78;;
58446;SDS011;44240;51.840;7.258;2024-01-06T04:31:44;12.90;;;6.43;;
58446;SDS011;44240;51.840;7.258;2024-01-06T04:34:11;14.07;;;5.82;;
58446;SDS011;44240;51.840;7.258;2024-01-06T04:36:38;14.10;;;6.15;;
58446;SDS011;44240;51.840;7.258;2024-01-06T04:39:04;12.13;;;5.22;;
58446;SDS011;44240;51.840;7.258;2024-01-06T04:41:31;12.02;;;5.63;;
58446;SDS011;44240;51.840;7.258;2024-01-06T04:43:58;11.25;;;5.65;;
58446;SDS011;44240;51.840;7.258;2024-01-06T04:46:25;13.15;;;5.93;;
58446;SDS011;44240;51.840;7.258;2024-01-06T04:48:52;13.48;;;5.97;;
58446;SDS011;44240;51.840;7.258;2024-01-06T04:51:18;11.30;;;5.43;;
58446;SDS011;44240;51.840;7.258;2024-01-06T04:53:45;12.48;;;5.75;;
58446;SDS011;44240;51.840;7.258;2024-01-06T04:56:12;12.82;;;5.70;;
58446;SDS011;44240;51.840;7.258;2024-01-06T04:58:39;12.65;;;5.43;;
58446;SDS011;44240;51.840;7.258;2024-01-06T05:01:06;9.88;;;4.82;;
58446;SDS011;44240;51.840;7.258;2024-01-06T05:03:34;12.45;;;5.20;;
58446;SDS011;44240;51.840;7.258;2024-01-06T05:06:01;12.15;;;5.30;;
58446;SDS011;44240;51.840;7.258;2024-01-06T05:08:28;13.90;;;6.15;;
58446;SDS011;44240;51.840;7.258;2024-01-06T05:10:57;10.65;;;5.70;;
58446;SDS011;44240;51.840;7.258;2024-01-06T05:13:23;11.05;;;5.75;;
58446;SDS011;44240;51.840;7.258;2024-01-06T05:15:50;12.68;;;5.78;;
58446;SDS011;44240;51.840;7.258;2024-01-06T05:18:17;11.63;;;5.68;;
58446;SDS011;44240;51.840;7.258;2024-01-06T05:20:44;9.35;;;5.93;;
58446;SDS011;44240;51.840;7.258;2024-01-06T05:23:11;11.75;;;5.38;;
58446;SDS011;44240;51.840;7.258;2024-01-06T05:25:38;13.00;;;6.20;;
58446;SDS011;44240;51.840;7.258;2024-01-06T05:28:05;13.65;;;6.40;;
58446;SDS011;44240;51.840;7.258;2024-01-06T05:30:32;14.15;;;6.60;;
58446;SDS011;44240;51.840;7.258;2024-01-06T05:32:59;11.90;;;6.57;;
58446;SDS011;44240;51.840;7.258;2024-01-06T05:35:27;13.45;;;6.10;;
58446;SDS011;44240;51.840;7.258;2024-01-06T05:37:54;13.48;;;6.57;;
58446;SDS011;44240;51.840;7.258;2024-01-06T05:40:21;18.70;;;7.35;;
58446;SDS011;44240;51.840;7.258;2024-01-06T05:42:48;15.68;;;6.68;;
58446;SDS011;44240;51.840;7.258;2024-01-06T05:45:15;12.25;;;5.57;;
58446;SDS011;44240;51.840;7.258;2024-01-06T05:47:42;13.45;;;6.10;;
58446;SDS011;44240;51.840;7.258;2024-01-06T05:50:08;12.25;;;5.55;;
58446;SDS011;44240;51.840;7.258;2024-01-06T05:52:36;11.55;;;5.28;;
58446;SDS011;44240;51.840;7.258;2024-01-06T05:55:03;11.27;;;5.60;;
58446;SDS011;44240;51.840;7.258;2024-01-06T05:57:30;11.93;;;5.35;;
58446;SDS011;44240;51.840;7.258;2024-01-06T05:59:57;10.20;;;5.32;;
58446;SDS011;44240;51.840;7.258;2024-01-06T06:02:25;10.50;;;4.63;;
58446;SDS011;44240;51.840;7.258;2024-01-06T06:04:52;8.68;;;4.32;;
58446;SDS011;44240;51.840;7.258;2024-01-06T06:07:19;10.40;;;5.07;;
58446;SDS011;44240;51.840;7.258;2024-01-06T06:09:47;7.43;;;3.95;;
58446;SDS011;44240;51.840;7.258;2024-01-06T06:12:14;9.70;;;5.07;;
58446;SDS011;44240;51.840;7.258;2024-01-06T06:14:41;9.13;;;4.35;;
58446;SDS011;44240;51.840;7.258;2024-01-06T06:17:08;11.68;;;5.22;;
58446;SDS011;44240;51.840;7.258;2024-01-06T06:19:34;11.05;;;4.72;;
58446;SDS011;44240;51.840;7.258;2024-01-06T06:22:01;9.63;;;5.13;;
58446;SDS011;44240;51.840;7.258;2024-01-06T06:24:28;10.45;;;5.05;;
58446;SDS011;44240;51.840;7.258;2024-01-06T06:26:55;8.55;;;3.80;;
58446;SDS011;44240;51.840;7.258;2024-01-06T06:29:22;7.03;;;3.58;;
58446;SDS011;44240;51.840;7.258;2024-01-06T06:31:49;6.68;;;3.40;;
58446;SDS011;44240;51.840;7.258;2024-01-06T06:34:16;8.00;;;3.78;;
58446;SDS011;44240;51.840;7.258;2024-01-06T06:36:43;8.35;;;3.45;;
58446;SDS011;44240;51.840;7.258;2024-01-06T06:39:10;9.68;;;3.35;;
58446;SDS011;44240;51.840;7.258;2024-01-06T06:41:37;8.55;;;3.63;;
58446;SDS011;44240;51.840;7.258;2024-01-06T06:44:03;8.05;;;3.38;;
58446;SDS011;44240;51.840;7.258;2024-01-06T06:46:30;7.35;;;3.33;;
58446;SDS011;44240;51.840;7.258;2024-01-06T06:48:57;9.10;;;4.13;;
58446;SDS011;44240;51.840;7.258;2024-01-06T06:51:24;9.73;;;3.75;;
58446;SDS011;44240;51.840;7.258;2024-01-06T06:53:53;9.93;;;4.47;;
58446;SDS011;44240;51.840;7.258;2024-01-06T06:56:20;10.15;;;4.80;;
58446;SDS011;44240;51.840;7.258;2024-01-06T06:58:47;12.48;;;5.03;;
58446;SDS011;44240;51.840;7.258;2024-01-06T07:01:14;12.02;;;5.13;;
58446;SDS011;44240;51.840;7.258;2024-01-06T07:03:42;14.88;;;5.90;;
58446;SDS011;44240;51.840;7.258;2024-01-06T07:06:11;11.43;;;5.35;;
58446;SDS011;44240;51.840;7.258;2024-01-06T07:08:39;13.30;;;5.13;;
58446;SDS011;44240;51.840;7.258;2024-01-06T07:11:08;12.27;;;5.57;;
58446;SDS011;44240;51.840;7.258;2024-01-06T07:13:37;14.05;;;5.80;;
58446;SDS011;44240;51.840;7.258;2024-01-06T07:16:05;15.63;;;6.88;;
58446;SDS011;44240;51.840;7.258;2024-01-06T07:18:44;12.57;;;6.13;;
58446;SDS011;44240;51.840;7.258;2024-01-06T07:21:11;10.48;;;4.53;;
58446;SDS011;44240;51.840;7.258;2024-01-06T07:23:39;12.10;;;6.13;;
58446;SDS011;44240;51.840;7.258;2024-01-06T07:26:06;17.08;;;7.10;;
58446;SDS011;44240;51.840;7.258;2024-01-06T07:28:34;12.00;;;6.35;;
58446;SDS011;44240;51.840;7.258;2024-01-06T07:31:01;17.15;;;7.38;;
58446;SDS011;44240;51.840;7.258;2024-01-06T07:33:28;14.80;;;7.15;;
58446;SDS011;44240;51.840;7.258;2024-01-06T07:35:55;18.17;;;7.63;;
58446;SDS011;44240;51.840;7.258;2024-01-06T07:38:22;17.42;;;7.65;;
58446;SDS011;44240;51.840;7.258;2024-01-06T07:40:49;20.02;;;7.78;;
58446;SDS011;44240;51.840;7.258;2024-01-06T07:43:15;21.30;;;8.52;;
58446;SDS011;44240;51.840;7.258;2024-01-06T07:45:42;17.52;;;8.77;;
58446;SDS011;44240;51.840;7.258;2024-01-06T07:48:09;18.33;;;7.70;;
58446;SDS011;44240;51.840;7.258;2024-01-06T07:50:36;21.98;;;9.63;;
58446;SDS011;44240;51.840;7.258;2024-01-06T07:53:02;20.55;;;8.73;;
58446;SDS011;44240;51.840;7.258;2024-01-06T07:55:29;19.63;;;8.23;;
58446;SDS011;44240;51.840;7.258;2024-01-06T07:57:56;23.15;;;9.32;;
58446;SDS011;44240;51.840;7.258;2024-01-06T08:00:23;23.27;;;9.38;;
58446;SDS011;44240;51.840;7.258;2024-01-06T08:02:50;25.80;;;9.60;;
58446;SDS011;44240;51.840;7.258;2024-01-06T08:05:17;23.20;;;9.20;;
58446;SDS011;44240;51.840;7.258;2024-01-06T08:07:44;22.23;;;10.15;;
58446;SDS011;44240;51.840;7.258;2024-01-06T08:10:11;18.60;;;8.40;;
58446;SDS011;44240;51.840;7.258;2024-01-06T08:12:37;21.30;;;9.05;;
58446;SDS011;44240;51.840;7.258;2024-01-06T08:15:04;22.70;;;10.48;;
58446;SDS011;44240;51.840;7.258;2024-01-06T08:17:33;23.65;;;9.40;;
58446;SDS011;44240;51.840;7.258;2024-01-06T08:20:00;21.98;;;9.32;;
58446;SDS011;44240;51.840;7.258;2024-01-06T08:22:27;23.83;;;8.85;;
58446;SDS011;44240;51.840;7.258;2024-01-06T08:24:54;23.30;;;10.38;;
58446;SDS011;44240;51.840;7.258;2024-01-06T08:27:20;21.67;;;9.73;;
58446;SDS011;44240;51.840;7.258;2024-01-06T08:29:49;19.23;;;8.93;;
58446;SDS011;44240;51.840;7.258;2024-01-06T08:32:16;22.60;;;8.75;;
58446;SDS011;44240;51.840;7.258;2024-01-06T08:34:43;20.92;;;9.80;;
58446;SDS011;44240;51.840;7.258;2024-01-06T08:37:10;21.48;;;8.55;;
58446;SDS011;44240;51.840;7.258;2024-01-06T08:39:37;21.90;;;8.95;;
58446;SDS011;44240;51.840;7.258;2024-01-06T08:42:04;21.35;;;9.35;;
58446;SDS011;44240;51.840;7.258;2024-01-06T08:44:31;20.13;;;9.73;;
58446;SDS011;44240;51.840;7.258;2024-01-06T08:46:58;24.05;;;10.30;;
58446;SDS011;44240;51.840;7.258;2024-01-06T08:49:24;23.23;;;9.18;;
58446;SDS011;44240;51.840;7.258;2024-01-06T08:51:51;22.85;;;9.60;;
58446;SDS011;44240;51.840;7.258;2024-01-06T08:54:18;25.58;;;10.70;;
58446;SDS011;44240;51.840;7.258;2024-01-06T08:56:45;20.35;;;8.95;;
58446;SDS011;44240;51.840;7.258;2024-01-06T08:59:12;22.70;;;9.48;;
58446;SDS011;44240;51.840;7.258;2024-01-06T09:01:39;21.80;;;9.25;;
58446;SDS011;44240;51.840;7.258;2024-01-06T09:04:06;22.10;;;10.10;;
58446;SDS011;44240;51.840;7.258;2024-01-06T09:06:33;20.13;;;9.52;;
58446;SDS011;44240;51.840;7.258;2024-01-06T09:09:00;23.85;;;9.82;;
58446;SDS011;44240;51.840;7.258;2024-01-06T09:11:27;23.00;;;10.52;;
58446;SDS011;44240;51.840;7.258;2024-01-06T09:13:54;23.27;;;10.73;;
58446;SDS011;44240;51.840;7.258;2024-01-06T09:16:21;25.45;;;10.60;;
58446;SDS011;44240;51.840;7.258;2024-01-06T09:18:47;20.00;;;9.75;;
58446;SDS011;44240;51.840;7.258;2024-01-06T09:21:15;20.30;;;9.35;;
58446;SDS011;44240;51.840;7.258;2024-01-06T09:23:44;21.60;;;9.93;;
58446;SDS011;44240;51.840;7.258;2024-01-06T09:26:10;21.65;;;10.25;;
58446;SDS011;44240;51.840;7.258;2024-01-06T09:28:37;23.23;;;9.32;;
58446;SDS011;44240;51.840;7.258;2024-01-06T09:31:05;24.70;;;10.10;;
58446;SDS011;44240;51.840;7.258;2024-01-06T09:33:32;25.95;;;10.10;;
58446;SDS011;44240;51.840;7.258;2024-01-06T09:36:00;21.15;;;9.98;;
58446;SDS011;44240;51.840;7.258;2024-01-06T09:38:28;20.58;;;9.20;;
58446;SDS011;44240;51.840;7.258;2024-01-06T09:40:55;19.58;;;9.13;;
58446;SDS011;44240;51.840;7.258;2024-01-06T09:43:22;22.73;;;9.98;;
58446;SDS011;44240;51.840;7.258;2024-01-06T09:45:53;20.88;;;8.77;;
58446;SDS011;44240;51.840;7.258;2024-01-06T09:48:26;17.75;;;8.55;;
58446;SDS011;44240;51.840;7.258;2024-01-06T09:50:56;19.08;;;9.75;;
58446;SDS011;44240;51.840;7.258;2024-01-06T09:53:28;18.50;;;9.20;;
58446;SDS011;44240;51.840;7.258;2024-01-06T09:56:02;18.27;;;8.88;;
58446;SDS011;44240;51.840;7.258;2024-01-06T09:58:31;19.42;;;9.40;;
58446;SDS011;44240;51.840;7.258;2024-01-06T10:01:00;18.27;;;8.73;;
58446;SDS011;44240;51.840;7.258;2024-01-06T10:03:28;17.65;;;8.60;;
58446;SDS011;44240;51.840;7.258;2024-01-06T10:05:55;19.42;;;8.52;;
58446;SDS011;44240;51.840;7.258;2024-01-06T10:08:26;19.83;;;9.45;;
58446;SDS011;44240;51.840;7.258;2024-01-06T10:10:53;22.20;;;8.80;;
58446;SDS011;44240;51.840;7.258;2024-01-06T10:13:20;18.70;;;8.93;;
58446;SDS011;44240;51.840;7.258;2024-01-06T10:15:47;17.75;;;8.20;;
58446;SDS011;44240;51.840;7.258;2024-01-06T10:18:14;16.27;;;8.13;;
58446;SDS011;44240;51.840;7.258;2024-01-06T10:20:41;12.13;;;6.40;;
58446;SDS011;44240;51.840;7.258;2024-01-06T10:23:08;13.95;;;7.20;;
58446;SDS011;44240;51.840;7.258;2024-01-06T10:25:35;14.15;;;7.38;;
58446;SDS011;44240;51.840;7.258;2024-01-06T10:28:02;18.08;;;7.63;;
58446;SDS011;44240;51.840;7.258;2024-01-06T10:30:29;16.92;;;7.13;;
58446;SDS011;44240;51.840;7.258;2024-01-06T10:32:56;15.05;;;7.15;;
58446;SDS011;44240;51.840;7.258;2024-01-06T10:35:24;13.82;;;6.60;;
58446;SDS011;44240;51.840;7.258;2024-01-06T10:37:52;14.63;;;6.93;;
58446;SDS011;44240;51.840;7.258;2024-01-06T10:40:20;15.48;;;7.18;;
58446;SDS011;44240;51.840;7.258;2024-01-06T10:42:47;13.63;;;7.28;;
58446;SDS011;44240;51.840;7.258;2024-01-06T10:45:14;18.17;;;7.78;;
58446;SDS011;44240;51.840;7.258;2024-01-06T10:47:42;14.25;;;6.80;;
58446;SDS011;44240;51.840;7.258;2024-01-06T10:50:10;18.52;;;7.00;;
58446;SDS011;44240;51.840;7.258;2024-01-06T10:52:37;13.35;;;6.82;;
58446;SDS011;44240;51.840;7.258;2024-01-06T10:55:05;14.73;;;7.13;;
58446;SDS011;44240;51.840;7.258;2024-01-06T10:57:32;17.17;;;7.90;;
58446;SDS011;44240;51.840;7.258;2024-01-06T11:00:01;12.80;;;6.15;;
58446;SDS011;44240;51.840;7.258;2024-01-06T11:02:28;14.85;;;11.18;;
58446;SDS011;44240;51.840;7.258;2024-01-06T11:04:57;15.73;;;6.80;;
58446;SDS011;44240;51.840;7.258;2024-01-06T11:07:24;13.38;;;6.30;;
58446;SDS011;44240;51.840;7.258;2024-01-06T11:12:22;13.65;;;7.38;;
58446;SDS011;44240;51.840;7.258;2024-01-06T11:14:52;15.15;;;7.28;;
58446;SDS011;44240;51.840;7.258;2024-01-06T11:17:48;14.43;;;6.38;;
58446;SDS011;44240;51.840;7.258;2024-01-06T11:20:24;12.25;;;6.18;;
58446;SDS011;44240;51.840;7.258;2024-01-06T11:22:53;15.35;;;6.75;;
58446;SDS011;44240;51.840;7.258;2024-01-06T11:25:20;16.80;;;6.88;;
58446;SDS011;44240;51.840;7.258;2024-01-06T11:27:49;14.90;;;6.60;;
58446;SDS011;44240;51.840;7.258;2024-01-06T11:30:23;14.88;;;6.47;;
58446;SDS011;44240;51.840;7.258;2024-01-06T11:32:52;12.77;;;6.28;;
58446;SDS011;44240;51.840;7.258;2024-01-06T11:35:20;15.50;;;6.53;;
58446;SDS011;44240;51.840;7.258;2024-01-06T11:40:22;14.18;;;6.60;;
58446;SDS011;44240;51.840;7.258;2024-01-06T11:43:00;13.98;;;6.97;;
58446;SDS011;44240;51.840;7.258;2024-01-06T11:45:31;12.95;;;6.60;;
58446;SDS011;44240;51.840;7.258;2024-01-06T11:48:00;13.27;;;6.70;;
58446;SDS011;44240;51.840;7.258;2024-01-06T11:50:30;12.63;;;6.13;;
58446;SDS011;44240;51.840;7.258;2024-01-06T11:53:01;15.18;;;7.15;;
58446;SDS011;44240;51.840;7.258;2024-01-06T11:55:28;14.32;;;6.65;;
58446;SDS011;44240;51.840;7.258;2024-01-06T11:57:58;15.57;;;6.60;;
58446;SDS011;44240;51.840;7.258;2024-01-06T12:00:29;14.35;;;6.07;;
58446;SDS011;44240;51.840;7.258;2024-01-06T12:02:57;14.80;;;7.00;;
58446;SDS011;44240;51.840;7.258;2024-01-06T12:05:27;12.35;;;6.25;;
58446;SDS011;44240;51.840;7.258;2024-01-06T12:10:23;13.90;;;6.95;;
58446;SDS011;44240;51.840;7.258;2024-01-06T12:13:05;12.18;;;5.47;;
58446;SDS011;44240;51.840;7.258;2024-01-06T12:15:35;12.80;;;7.20;;
58446;SDS011;44240;51.840;7.258;2024-01-06T12:18:06;13.70;;;6.40;;
58446;SDS011;44240;51.840;7.258;2024-01-06T12:20:33;11.88;;;5.60;;
58446;SDS011;44240;51.840;7.258;2024-01-06T12:23:00;12.13;;;6.65;;
58446;SDS011;44240;51.840;7.258;2024-01-06T12:25:30;15.20;;;9.60;;
58446;SDS011;44240;51.840;7.258;2024-01-06T12:28:02;38.42;;;21.92;;
58446;SDS011;44240;51.840;7.258;2024-01-06T12:30:29;51.38;;;26.10;;
58446;SDS011;44240;51.840;7.258;2024-01-06T12:32:57;36.75;;;21.30;;
58446;SDS011;44240;51.840;7.258;2024-01-06T12:35:25;29.52;;;16.17;;
58446;SDS011;44240;51.840;7.258;2024-01-06T12:37:52;31.02;;;18.65;;
58446;SDS011;44240;51.840;7.258;2024-01-06T12:40:19;23.75;;;16.10;;
58446;SDS011;44240;51.840;7.258;2024-01-06T12:42:47;16.80;;;9.73;;
58446;SDS011;44240;51.840;7.258;2024-01-06T12:45:15;15.52;;;8.85;;
58446;SDS011;44240;51.840;7.258;2024-01-06T12:47:43;14.10;;;8.32;;
58446;SDS011;44240;51.840;7.258;2024-01-06T12:50:10;13.55;;;7.78;;
58446;SDS011;44240;51.840;7.258;2024-01-06T12:52:37;16.63;;;8.30;;
58446;SDS011;44240;51.840;7.258;2024-01-06T12:55:06;14.95;;;6.68;;
58446;SDS011;44240;51.840;7.258;2024-01-06T12:57:34;14.65;;;7.97;;
58446;SDS011;44240;51.840;7.258;2024-01-06T13:00:02;14.15;;;7.40;;
58446;SDS011;44240;51.840;7.258;2024-01-06T13:02:29;13.82;;;7.22;;
58446;SDS011;44240;51.840;7.258;2024-01-06T13:04:56;15.38;;;7.03;;
58446;SDS011;44240;51.840;7.258;2024-01-06T13:07:24;15.80;;;7.63;;
58446;SDS011;44240;51.840;7.258;2024-01-06T13:09:51;18.35;;;8.45;;
58446;SDS011;44240;51.840;7.258;2024-01-06T13:12:18;12.60;;;7.60;;
58446;SDS011;44240;51.840;7.258;2024-01-06T13:14:45;15.98;;;9.18;;
58446;SDS011;44240;51.840;7.258;2024-01-06T13:17:13;16.65;;;8.85;;
58446;SDS011;44240;51.840;7.258;2024-01-06T13:19:40;12.73;;;7.28;;
58446;SDS011;44240;51.840;7.258;2024-01-06T13:22:08;15.32;;;7.78;;
58446;SDS011;44240;51.840;7.258;2024-01-06T13:24:34;16.23;;;8.77;;
58446;SDS011;44240;51.840;7.258;2024-01-06T13:27:01;14.68;;;7.30;;
58446;SDS011;44240;51.840;7.258;2024-01-06T13:29:29;13.82;;;7.63;;
58446;SDS011;44240;51.840;7.258;2024-01-06T13:31:56;16.42;;;7.65;;
58446;SDS011;44240;51.840;7.258;2024-01-06T13:34:23;16.45;;;8.13;;
58446;SDS011;44240;51.840;7.258;2024-01-06T13:36:51;14.90;;;7.13;;
58446;SDS011;44240;51.840;7.258;2024-01-06T13:39:22;12.77;;;6.40;;
58446;SDS011;44240;51.840;7.258;2024-01-06T13:41:49;16.10;;;9.88;;
58446;SDS011;44240;51.840;7.258;2024-01-06T13:44:16;14.02;;;7.65;;
58446;SDS011;44240;51.840;7.258;2024-01-06T13:46:43;11.32;;;6.70;;
58446;SDS011;44240;51.840;7.258;2024-01-06T13:49:11;13.75;;;6.70;;
58446;SDS011;44240;51.840;7.258;2024-01-06T13:51:39;11.05;;;6.05;;
58446;SDS011;44240;51.840;7.258;2024-01-06T13:54:06;9.98;;;4.55;;
58446;SDS011;44240;51.840;7.258;2024-01-06T13:56:34;19.65;;;9.82;;
58446;SDS011;44240;51.840;7.258;2024-01-06T13:59:01;10.02;;;5.78;;
58446;SDS011;44240;51.840;7.258;2024-01-06T14:01:28;11.20;;;6.60;;
58446;SDS011;44240;51.840;7.258;2024-01-06T14:03:55;23.77;;;12.48;;
58446;SDS011;44240;51.840;7.258;2024-01-06T14:06:26;14.02;;;7.50;;
58446;SDS011;44240;51.840;7.258;2024-01-06T14:08:57;29.40;;;16.23;;
58446;SDS011;44240;51.840;7.258;2024-01-06T14:11:25;38.85;;;21.30;;
58446;SDS011;44240;51.840;7.258;2024-01-06T14:13:56;13.73;;;8.52;;
58446;SDS011;44240;51.840;7.258;2024-01-06T14:16:25;10.65;;;5.82;;
58446;SDS011;44240;51.840;7.258;2024-01-06T14:18:52;45.95;;;17.88;;
58446;SDS011;44240;51.840;7.258;2024-01-06T14:21:19;28.55;;;13.75;;
58446;SDS011;44240;51.840;7.258;2024-01-06T14:23:46;21.30;;;10.52;;
58446;SDS011;44240;51.840;7.258;2024-01-06T14:26:18;51.67;;;24.73;;
58446;SDS011;44240;51.840;7.258;2024-01-06T14:28:49;18.25;;;9.68;;
58446;SDS011;44240;51.840;7.258;2024-01-06T14:31:16;15.65;;;9.00;;
58446;SDS011;44240;51.840;7.258;2024-01-06T14:33:44;21.20;;;11.05;;
58446;SDS011;44240;51.840;7.258;2024-01-06T14:36:11;16.83;;;9.10;;
58446;SDS011;44240;51.840;7.258;2024-01-06T14:38:38;16.33;;;9.35;;
58446;SDS011;44240;51.840;7.258;2024-01-06T14:41:05;23.40;;;11.10;;
58446;SDS011;44240;51.840;7.258;2024-01-06T14:43:32;17.50;;;8.98;;